Terminal Aerodrome Forecast
Issued by NWS Melbourne, FL

Current Version | Previous Version | Text Only | Print | Product List | Glossary On
Versions: 1 2 3 4 5 6 7 8 9 10 11 12 13 14 15 16 17 18 19 20 21
000
FTUS42 KMLB 031120
TAFMLB
TAF
KMLB 031120Z 0312/0412 06005KT 3SM BR BKN003
      TEMPO 0312/0314 1/2SM FG BKN002
     FM031500 08008KT P6SM SCT005 SCT020
     FM031700 11011KT P6SM SCT030
     FM040000 12006KT P6SM FEW030 SCT250
     FM040900 14004KT P6SM SCT008
      TEMPO 0409/0412 5SM BR BKN008=

USA.gov is the U.S. government's official web portal to all federal, state and local government web resources and services.